Time;durP1;ratioP1;P1;durP2;ratioP2;P2;SDS_P1;SDS_P2;PMS_P1;PMS_P2;Temp;Humidity;BMP_temperature;BMP_pressure;BME280_temperature;BME280_humidity;BME280_pressure;Samples;Min_cycle;Max_cycle;Signal;HPM_P1;HPM_P2
2022/02/05 00:00:31;;;;;;;0.60;0.60;;;;;;;3.72;76.11;97072.13;29373;218;63004;-61
2022/02/05 00:01:12;;;;;;;0.60;0.60;;;;;;;3.73;76.37;97070.25;29395;239;63008;-63
2022/02/05 00:01:51;;;;;;;0.70;0.70;;;;;;;3.66;76.68;97063.19;29417;216;63005;-60
2022/02/05 00:02:26;;;;;;;0.60;0.60;;;;;;;3.60;77.31;97068.72;29395;213;63009;-63
2022/02/05 00:03:13;;;;;;;0.60;0.60;;;;;;;3.61;76.80;97059.59;29395;232;63005;-64
2022/02/05 00:03:48;;;;;;;0.60;0.60;;;;;;;3.67;76.25;97072.06;29394;232;64009;-61
2022/02/05 00:04:20;;;;;;;0.60;0.60;;;;;;;3.68;76.32;97071.81;29395;203;63005;-62
2022/02/05 00:04:51;;;;;;;0.60;0.60;;;;;;;3.65;75.87;97063.44;29395;224;63009;-57
2022/02/05 00:05:35;;;;;;;0.60;0.60;;;;;;;3.63;76.01;97068.22;29394;239;64004;-57
2022/02/05 00:06:15;;;;;;;0.60;0.60;;;;;;;3.61;76.23;97065.78;29395;203;63009;-61
2022/02/05 00:06:51;;;;;;;1.12;1.12;;;;;;;3.64;75.58;97067.16;29373;214;63004;-62
2022/02/05 00:07:25;;;;;;;0.68;0.68;;;;;;;3.68;74.92;97071.00;29395;197;63008;-59
2022/02/05 00:08:15;;;;;;;0.60;0.60;;;;;;;3.64;75.21;97086.75;29395;207;63004;-59
2022/02/05 00:09:00;;;;;;;0.98;0.98;;;;;;;3.61;75.15;97075.69;29395;244;63009;-64
2022/02/05 00:12:51;;;;;;;1.25;1.23;;;;;;;3.49;74.56;97078.44;29395;273;63009;-61
2022/02/05 00:20:00;;;;;;;0.60;0.60;;;;;;;3.36;74.09;97089.50;29395;222;63005;-61
2022/02/05 00:38:25;;;;;;;0.60;0.60;;;;;;;3.05;74.11;97136.41;29371;234;64004;-65
2022/02/05 00:40:07;;;;;;;1.30;1.27;;;;;;;3.05;73.45;97135.59;29417;276;63005;-67
2022/02/05 00:41:00;;;;;;;0.65;0.65;;;;;;;3.03;73.71;97133.16;29417;296;63009;-62
2022/02/05 00:41:47;;;;;;;0.60;0.60;;;;;;;2.91;74.32;97145.78;29394;230;64005;-62
2022/02/05 00:43:18;;;;;;;0.60;0.60;;;;;;;2.90;73.64;97149.50;29373;197;63004;-60
2022/02/05 00:43:59;;;;;;;0.70;0.70;;;;;;;2.87;74.09;97148.13;29373;225;63009;-66
2022/02/05 00:44:31;;;;;;;0.60;0.60;;;;;;;2.86;73.66;97153.72;29395;209;63012;-60
2022/02/05 00:45:09;;;;;;;0.60;0.60;;;;;;;2.87;73.07;97155.34;29373;216;63009;-62
2022/02/05 00:45:47;;;;;;;0.90;0.90;;;;;;;2.83;73.24;97154.19;29373;202;63004;-64
2022/02/05 00:46:22;;;;;;;0.60;0.60;;;;;;;2.74;74.05;97163.66;29373;210;63009;-56
2022/02/05 00:46:56;;;;;;;0.85;0.85;;;;;;;2.74;72.94;97151.09;29371;199;64005;-58
2022/02/05 00:47:30;;;;;;;0.70;0.70;;;;;;;2.81;72.06;97159.78;29371;216;64009;-61
2022/02/05 00:48:05;;;;;;;0.60;0.60;;;;;;;2.74;72.03;97155.63;29373;266;63005;-61
2022/02/05 00:48:36;;;;;;;0.60;0.60;;;;;;;2.70;72.61;97160.63;29373;232;63009;-58
2022/02/05 00:49:22;;;;;;;0.60;0.60;;;;;;;2.64;72.90;97157.03;29373;228;63005;-60
2022/02/05 00:49:59;;;;;;;6.12;3.70;;;;;;;2.63;72.80;97168.78;29373;246;63020;-63
2022/02/05 00:50:38;;;;;;;0.60;0.60;;;;;;;2.67;71.64;97167.28;29373;241;63004;-55
2022/02/05 00:51:15;;;;;;;0.70;0.70;;;;;;;2.71;71.22;97162.25;29373;198;63009;-60
2022/02/05 00:51:55;;;;;;;0.60;0.60;;;;;;;2.69;71.36;97162.50;29373;262;63004;-63
2022/02/05 00:52:27;;;;;;;0.60;0.60;;;;;;;2.64;71.38;97177.66;29371;206;64009;-55
2022/02/05 00:53:07;;;;;;;0.60;0.60;;;;;;;2.58;72.18;97166.00;29373;293;63004;-65
2022/02/05 00:53:41;;;;;;;0.60;0.60;;;;;;;2.52;72.59;97166.94;29373;367;63025;-60
2022/02/05 00:54:16;;;;;;;0.60;0.60;;;;;;;2.45;72.61;97174.28;29373;198;63005;-66
2022/02/05 00:54:51;;;;;;;0.70;0.70;;;;;;;2.50;71.37;97176.25;29373;199;63009;-57
2022/02/05 00:55:28;;;;;;;0.60;0.60;;;;;;;2.48;71.45;97162.28;29373;270;63005;-61
2022/02/05 00:56:10;;;;;;;0.60;0.60;;;;;;;2.48;72.02;97173.81;29373;249;63026;-61
2022/02/05 00:56:51;;;;;;;0.70;0.70;;;;;;;2.54;71.31;97167.53;29395;322;63005;-61
2022/02/05 00:57:44;;;;;;;0.60;0.60;;;;;;;2.58;70.88;97168.69;29371;315;64009;-62
2022/02/05 00:58:17;;;;;;;0.70;0.70;;;;;;;2.59;70.87;97169.50;29393;207;64004;-56
2022/02/05 00:58:51;;;;;;;0.60;0.60;;;;;;;2.58;71.05;97168.69;29395;198;63009;-64
2022/02/05 00:59:22;;;;;;;0.60;0.60;;;;;;;2.57;70.50;97180.44;29373;307;63017;-66
2022/02/05 00:59:54;;;;;;;0.60;0.60;;;;;;;2.58;70.64;97178.59;29373;197;63008;-63
2022/02/05 01:00:28;;;;;;;0.60;0.60;;;;;;;2.52;70.86;97180.34;29374;358;63004;-60
2022/02/05 01:01:00;;;;;;;0.60;0.60;;;;;;;2.52;70.62;97174.97;29371;328;64009;-60
2022/02/05 01:01:31;;;;;;;0.60;0.60;;;;;;;2.49;70.39;97183.47;29373;231;63005;-58
2022/02/05 01:02:04;;;;;;;0.60;0.60;;;;;;;2.40;71.22;97176.88;29373;203;63009;-59
2022/02/05 01:02:36;;;;;;;0.60;0.60;;;;;;;2.33;71.78;97176.16;29373;427;63005;-60
2022/02/05 01:03:08;;;;;;;0.60;0.60;;;;;;;2.27;72.86;97182.44;29373;224;63009;-62
2022/02/05 01:03:40;;;;;;;0.60;0.60;;;;;;;2.27;72.02;97182.44;29373;241;63005;-60
2022/02/05 01:04:11;;;;;;;0.60;0.60;;;;;;;2.34;71.56;97188.50;29373;340;63009;-63
2022/02/05 01:04:47;;;;;;;0.93;0.93;;;;;;;2.42;71.22;97177.44;29371;232;64016;-63
2022/02/05 01:05:21;;;;;;;0.60;0.60;;;;;;;2.46;70.60;97181.25;29373;226;63009;-57
2022/02/05 01:05:52;;;;;;;0.60;0.60;;;;;;;2.44;70.39;97183.34;29373;197;63017;-63
2022/02/05 01:06:24;;;;;;;0.60;0.60;;;;;;;2.43;70.52;97181.72;29373;344;63009;-61
2022/02/05 01:06:59;;;;;;;1.15;1.15;;;;;;;2.42;70.35;97190.84;29373;228;63004;-64
2022/02/05 01:07:32;;;;;;;0.60;0.60;;;;;;;2.39;70.54;97190.50;29373;244;63008;-61
2022/02/05 01:08:06;;;;;;;0.60;0.60;;;;;;;2.34;70.46;97188.50;29373;234;63005;-63
2022/02/05 01:08:38;;;;;;;0.60;0.60;;;;;;;2.30;70.49;97188.16;29373;203;63017;-62
2022/02/05 01:09:20;;;;;;;0.60;0.60;;;;;;;2.31;70.02;97188.97;29373;198;63005;-64
2022/02/05 01:09:53;;;;;;;0.60;0.60;;;;;;;2.35;69.65;97198.19;29371;202;64009;-60
2022/02/05 01:10:25;;;;;;;0.60;0.60;;;;;;;2.37;69.13;97189.91;29371;330;64015;-68
2022/02/05 01:10:58;;;;;;;0.60;0.60;;;;;;;2.35;69.05;97195.50;29372;294;64009;-59
2022/02/05 01:11:29;;;;;;;0.60;0.60;;;;;;;2.36;69.17;97191.78;29373;347;63005;-66
2022/02/05 01:12:05;;;;;;;0.60;0.60;;;;;;;2.35;68.98;97190.13;29371;329;64009;-63
2022/02/05 01:12:41;;;;;;;0.60;0.60;;;;;;;2.31;69.42;97194.31;29373;291;63011;-63
2022/02/05 01:13:13;;;;;;;0.60;0.60;;;;;;;2.25;69.99;97201.41;29373;348;63009;-58
2022/02/05 01:13:45;;;;;;;0.60;0.60;;;;;;;2.28;69.38;97200.16;29373;267;63004;-63
2022/02/05 01:14:21;;;;;;;0.60;0.60;;;;;;;2.27;69.78;97193.16;29373;207;63009;-59
2022/02/05 01:14:56;;;;;;;0.60;0.60;;;;;;;2.24;69.64;97197.13;29373;366;63004;-61
2022/02/05 01:15:35;;;;;;;0.60;0.60;;;;;;;2.22;69.70;97199.22;29373;311;63009;-63
2022/02/05 01:16:24;;;;;;;0.60;0.60;;;;;;;2.17;70.28;97198.28;29371;202;64005;-62
2022/02/05 01:17:03;;;;;;;0.60;0.60;;;;;;;2.14;70.27;97193.38;29373;334;63009;-62
2022/02/05 01:17:43;;;;;;;0.70;0.70;;;;;;;2.16;69.72;97196.63;29373;301;63005;-64
2022/02/05 01:18:18;;;;;;;0.60;0.60;;;;;;;2.17;70.17;97198.28;29373;357;63009;-60
2022/02/05 01:18:50;;;;;;;0.60;0.60;;;;;;;2.15;70.58;97205.72;29373;197;63013;-60
2022/02/05 01:22:12;;;;;;;0.70;0.70;;;;;;;2.01;70.47;97200.59;29373;199;63004;-58
2022/02/05 01:22:46;;;;;;;0.60;0.60;;;;;;;1.98;71.46;97203.72;29373;211;63008;-60
2022/02/05 01:23:24;;;;;;;0.60;0.60;;;;;;;1.95;71.29;97204.19;29373;378;63005;-54
2022/02/05 01:24:03;;;;;;;0.60;0.60;;;;;;;1.93;71.36;97208.97;29373;293;63013;-61
2022/02/05 01:24:36;;;;;;;0.60;0.60;;;;;;;1.90;71.71;97209.41;29372;294;64005;-65
2022/02/05 01:25:09;;;;;;;0.60;0.60;;;;;;;1.97;70.77;97212.00;29373;333;63009;-65
2022/02/05 01:25:51;;;;;;;0.60;0.60;;;;;;;2.06;70.05;97207.94;29373;311;63005;-64
2022/02/05 01:26:30;;;;;;;0.60;0.60;;;;;;;2.06;70.43;97212.47;29373;219;63009;-59
2022/02/05 01:27:07;;;;;;;0.60;0.60;;;;;;;1.99;70.91;97208.03;29371;243;64004;-55
2022/02/05 01:27:48;;;;;;;0.60;0.60;;;;;;;1.89;71.61;97221.16;29371;214;64009;-54
2022/02/05 01:28:26;;;;;;;0.70;0.70;;;;;;;1.79;72.07;97223.56;29395;335;63004;-55
2022/02/05 01:29:03;;;;;;;0.60;0.60;;;;;;;1.71;72.69;97225.78;29395;261;63009;-55
2022/02/05 01:30:00;;;;;;;0.60;0.60;;;;;;;1.62;72.72;97228.78;29373;202;63004;-58
2022/02/05 01:30:31;;;;;;;0.60;0.60;;;;;;;1.55;73.65;97227.22;29395;209;63022;-55
2022/02/05 01:31:07;;;;;;;0.60;0.60;;;;;;;1.57;73.50;97225.97;29395;306;63005;-59
2022/02/05 01:31:47;;;;;;;0.60;0.60;;;;;;;1.55;73.50;97219.22;29371;267;64023;-59
2022/02/05 01:32:24;;;;;;;0.60;0.60;;;;;;;1.53;73.98;97223.97;29373;263;63005;-56
2022/02/05 01:33:09;;;;;;;0.60;0.60;;;;;;;1.53;74.66;97226.63;29371;265;64009;-54
2022/02/05 01:33:59;;;;;;;0.60;0.60;;;;;;;1.47;74.35;97230.22;29373;231;63005;-53
2022/02/05 01:34:51;;;;;;;0.60;0.60;;;;;;;1.46;75.30;97229.41;29373;196;63005;-61
2022/02/05 01:35:41;;;;;;;0.60;0.60;;;;;;;1.49;74.87;97233.47;29373;198;63004;-56
2022/02/05 01:50:28;;;;;;;0.60;0.60;;;;;;;1.43;74.16;97245.06;29373;243;63009;-59
2022/02/05 01:52:10;;;;;;;0.60;0.60;;;;;;;1.56;73.24;97242.22;29371;196;64009;-55
2022/02/05 01:57:40;;;;;;;0.60;0.60;;;;;;;1.60;72.39;97238.88;29395;202;63004;-59
2022/02/05 01:58:35;;;;;;;0.60;0.60;;;;;;;1.59;72.85;97239.09;29373;279;63000;-62
2022/02/05 01:59:17;;;;;;;0.60;0.60;;;;;;;1.64;72.87;97241.91;29393;209;64013;-55
2022/02/05 02:04:51;;;;;;;0.60;0.60;;;;;;;1.41;74.06;97249.84;29373;278;63004;-60
2022/02/05 02:05:36;;;;;;;0.60;0.60;;;;;;;1.40;74.59;97250.88;29373;202;63009;-63
2022/02/05 02:06:18;;;;;;;0.60;0.60;;;;;;;1.48;73.27;97246.03;29373;198;63004;-59
2022/02/05 02:11:22;;;;;;;0.60;0.60;;;;;;;1.57;72.80;97257.25;29371;240;64013;-60
2022/02/05 02:11:54;;;;;;;0.60;0.60;;;;;;;1.54;73.49;97253.16;29373;202;63004;-61
2022/02/05 02:12:36;;;;;;;0.60;0.60;;;;;;;1.56;73.28;97244.91;29373;252;63023;-62
2022/02/05 02:15:18;;;;;;;0.60;0.60;;;;;;;1.46;74.10;97255.31;29373;228;63005;-59
2022/02/05 02:16:07;;;;;;;0.60;0.60;;;;;;;1.53;73.61;97238.16;29373;209;63009;-57
2022/02/05 02:18:55;;;;;;;0.70;0.70;;;;;;;1.48;73.86;97250.56;29395;245;63006;-60
2022/02/05 02:20:51;;;;;;;0.60;0.60;;;;;;;1.46;73.65;97255.31;29373;338;63011;-59
2022/02/05 02:21:39;;;;;;;0.60;0.60;;;;;;;1.40;74.31;97256.22;29371;202;64013;-59
2022/02/05 02:22:41;;;;;;;0.60;0.60;;;;;;;1.41;74.50;97258.66;29373;284;63004;-63
2022/02/05 02:23:40;;;;;;;0.60;0.60;;;;;;;1.43;74.20;97261.94;29395;298;63009;-60
2022/02/05 02:24:19;;;;;;;0.60;0.60;;;;;;;1.34;74.88;97258.78;29394;216;64009;-59
2022/02/05 02:25:04;;;;;;;0.60;0.60;;;;;;;1.30;75.10;97251.44;29373;331;63009;-55
2022/02/05 02:25:53;;;;;;;0.60;0.60;;;;;;;1.25;74.90;97260.13;29373;219;63005;-59
2022/02/05 02:26:42;;;;;;;0.60;0.60;;;;;;;1.25;75.46;97261.97;29373;239;63009;-54
2022/02/05 02:28:15;;;;;;;0.60;0.60;;;;;;;1.27;74.58;97263.38;29373;225;63004;-59
2022/02/05 02:29:01;;;;;;;0.60;0.60;;;;;;;1.27;75.36;97259.91;29371;227;64009;-61
2022/02/05 02:30:35;;;;;;;0.60;0.60;;;;;;;1.40;73.76;97258.91;29373;253;63005;-55
2022/02/05 02:31:12;;;;;;;0.60;0.60;;;;;;;1.36;74.23;97265.75;29373;311;63009;-61
2022/02/05 02:31:48;;;;;;;0.60;0.60;;;;;;;1.36;74.43;97265.75;29373;208;63005;-58
2022/02/05 02:32:22;;;;;;;0.60;0.60;;;;;;;1.31;74.72;97264.56;29373;225;63009;-60
2022/02/05 02:33:09;;;;;;;0.60;0.60;;;;;;;1.30;74.84;97260.28;29371;213;64009;-59
2022/02/05 02:33:45;;;;;;;0.60;0.60;;;;;;;1.27;75.32;97266.06;29373;277;63023;-60
2022/02/05 02:34:22;;;;;;;0.60;0.60;;;;;;;1.28;75.02;97265.03;29373;233;63004;-60
2022/02/05 02:35:00;;;;;;;0.70;0.70;;;;;;;1.28;75.37;97259.69;29373;217;63004;-58
2022/02/05 02:35:36;;;;;;;0.60;0.60;;;;;;;1.29;75.13;97261.31;29371;255;64009;-58
2022/02/05 02:36:20;;;;;;;0.60;0.60;;;;;;;1.32;74.87;97260.88;29373;215;63025;-58
2022/02/05 02:36:56;;;;;;;0.60;0.60;;;;;;;1.32;74.52;97265.37;29373;352;63004;-59
2022/02/05 02:37:43;;;;;;;0.60;0.60;;;;;;;1.31;74.64;97264.56;29373;282;63009;-59
2022/02/05 02:38:19;;;;;;;0.60;0.60;;;;;;;1.39;74.21;97266.09;29373;222;63005;-59
2022/02/05 02:38:55;;;;;;;0.60;0.60;;;;;;;1.37;74.35;97268.22;29371;212;64014;-58
2022/02/05 02:39:39;;;;;;;0.60;0.60;;;;;;;1.34;74.37;97268.66;29373;202;63005;-61
2022/02/05 02:41:18;;;;;;;0.60;0.60;;;;;;;1.37;73.58;97270.06;29373;265;63005;-60
2022/02/05 02:42:01;;;;;;;0.60;0.60;;;;;;;1.32;73.58;97268.88;29371;279;64013;-58
2022/02/05 02:42:38;;;;;;;0.60;0.60;;;;;;;1.26;74.19;97274.31;29373;214;63016;-59
2022/02/05 02:43:17;;;;;;;0.60;0.60;;;;;;;1.29;74.39;97271.19;29373;282;63009;-64
2022/02/05 02:43:52;;;;;;;0.60;0.60;;;;;;;1.38;73.26;97271.69;29371;291;64009;-60
2022/02/05 02:44:24;;;;;;;0.60;0.60;;;;;;;1.37;73.29;97276.22;29373;296;63008;-59
2022/02/05 02:44:55;;;;;;;0.57;0.57;;;;;;;1.36;73.89;97276.47;29373;204;63004;-59
2022/02/05 02:45:26;;;;;;;0.60;0.60;;;;;;;1.30;73.71;97272.81;29373;216;63009;-60
2022/02/05 02:45:57;;;;;;;0.60;0.60;;;;;;;1.27;74.45;97274.09;29373;240;63005;-61
2022/02/05 02:46:29;;;;;;;0.60;0.60;;;;;;;1.27;74.56;97276.75;29373;226;63009;-59
2022/02/05 02:47:00;;;;;;;0.60;0.60;;;;;;;1.26;74.23;97275.13;29373;209;63005;-59
2022/02/05 02:47:31;;;;;;;0.60;0.60;;;;;;;1.24;74.45;97274.53;29373;222;63009;-59
2022/02/05 02:48:03;;;;;;;0.60;0.60;;;;;;;1.23;74.54;97272.91;29373;355;63005;-54
2022/02/05 02:48:35;;;;;;;0.60;0.60;;;;;;;1.23;74.50;97277.41;29371;326;64013;-59
2022/02/05 02:49:12;;;;;;;0.60;0.60;;;;;;;1.21;74.78;97274.97;29373;236;63005;-59
2022/02/05 02:49:59;;;;;;;0.60;0.60;;;;;;;1.24;75.25;97279.06;29373;268;63009;-61
2022/02/05 02:56:22;;;;;;;0.60;0.60;;;;;;;1.33;74.13;97278.53;29373;202;63011;-61
2022/02/05 02:56:45;;;;;;;0.60;0.60;;;;;;;1.30;73.94;97273.63;29373;321;63009;-60
2022/02/05 02:57:21;;;;;;;0.60;0.60;;;;;;;1.32;73.80;97282.25;29373;202;63004;-59
2022/02/05 02:57:56;;;;;;;0.60;0.60;;;;;;;1.33;73.78;97278.53;29373;221;63009;-59
2022/02/05 02:58:31;;;;;;;0.60;0.60;;;;;;;1.33;73.60;97273.19;29373;272;63017;-58
2022/02/05 02:59:09;;;;;;;0.60;0.60;;;;;;;1.32;73.50;97274.22;29373;215;63009;-59
2022/02/05 02:59:56;;;;;;;0.60;0.60;;;;;;;1.30;73.79;97273.63;29373;251;63004;-63
2022/02/05 03:00:28;;;;;;;0.60;0.60;;;;;;;1.30;73.25;97272.81;29371;336;64014;-58
2022/02/05 03:01:00;;;;;;;0.60;0.60;;;;;;;1.36;72.96;97271.94;29373;247;63000;-60
2022/02/05 03:01:35;;;;;;;0.60;0.60;;;;;;;1.39;73.02;97271.44;29373;331;63009;-57
2022/02/05 03:02:12;;;;;;;0.60;0.60;;;;;;;1.45;72.49;97272.41;29373;362;63005;-64
2022/02/05 03:02:43;;;;;;;0.60;0.60;;;;;;;1.46;72.68;97269.50;29373;218;63009;-58
2022/02/05 03:03:14;;;;;;;0.60;0.60;;;;;;;1.46;72.40;97276.72;29373;344;63005;-58
2022/02/05 03:03:46;;;;;;;0.60;0.60;;;;;;;1.44;72.67;97276.12;29373;282;63009;-59
2022/02/05 03:04:18;;;;;;;0.60;0.60;;;;;;;1.40;72.90;97278.44;29373;324;63003;-61
2022/02/05 03:04:49;;;;;;;0.60;0.60;;;;;;;1.44;72.79;97273.44;29373;335;63013;-60
2022/02/05 03:05:21;;;;;;;0.60;0.60;;;;;;;1.43;72.46;97277.97;29373;274;63004;-59
2022/02/05 03:05:53;;;;;;;0.60;0.60;;;;;;;1.38;72.81;97274.38;29372;262;64013;-59
2022/02/05 03:06:25;;;;;;;0.60;0.60;;;;;;;1.29;73.17;97272.00;29373;334;63004;-59
2022/02/05 03:06:56;;;;;;;0.60;0.60;;;;;;;1.27;73.75;97290.13;29373;202;63008;-60
2022/02/05 03:07:28;;;;;;;0.60;0.60;;;;;;;1.40;72.49;97283.78;29373;290;63004;-64
2022/02/05 03:07:59;;;;;;;0.60;0.60;;;;;;;1.46;72.23;97271.38;29373;350;63009;-59
2022/02/05 03:08:31;;;;;;;0.60;0.60;;;;;;;1.43;71.92;97271.81;29373;238;63009;-59
2022/02/05 03:09:02;;;;;;;0.60;0.60;;;;;;;1.42;72.45;97286.22;29373;240;63005;-64
2022/02/05 03:09:33;;;;;;;0.60;0.60;;;;;;;1.41;72.08;97282.72;29373;323;63005;-64
2022/02/05 03:10:06;;;;;;;0.60;0.60;;;;;;;1.42;72.03;97280.87;29373;248;63009;-58
2022/02/05 03:10:39;;;;;;;0.50;0.50;;;;;;;1.36;72.53;97287.16;29373;229;63005;-61
2022/02/05 03:11:12;;;;;;;0.60;0.60;;;;;;;1.34;72.86;97288.19;29371;359;64013;-55
2022/02/05 03:11:44;;;;;;;0.60;0.60;;;;;;;1.30;72.93;97281.66;29373;244;63004;-58
2022/02/05 03:12:17;;;;;;;0.60;0.60;;;;;;;1.27;73.28;97284.78;29373;218;63009;-59
2022/02/05 03:12:53;;;;;;;0.60;0.60;;;;;;;1.27;73.56;97290.13;29371;202;64009;-59
2022/02/05 03:13:24;;;;;;;0.85;0.85;;;;;;;1.26;73.58;97291.16;29373;301;63009;-60
2022/02/05 03:13:58;;;;;;;0.60;0.60;;;;;;;1.26;73.63;97287.66;29371;281;64008;-58
2022/02/05 03:14:29;;;;;;;0.60;0.60;;;;;;;1.30;73.17;97283.50;29373;252;63009;-59
2022/02/05 03:15:03;;;;;;;0.60;0.60;;;;;;;1.42;72.71;97286.22;29373;202;63005;-60
2022/02/05 03:15:42;;;;;;;0.60;0.60;;;;;;;1.56;71.90;97279.69;29373;220;63009;-62
2022/02/05 03:16:24;;;;;;;0.60;0.60;;;;;;;1.62;71.40;97281.44;29373;234;63005;-59
2022/02/05 03:17:03;;;;;;;0.60;0.60;;;;;;;1.64;71.14;97290.88;29371;215;64013;-60
2022/02/05 03:17:41;;;;;;;0.60;0.60;;;;;;;1.57;71.39;97289.34;29373;325;63005;-59
2022/02/05 03:18:26;;;;;;;0.60;0.60;;;;;;;1.46;72.15;97288.22;29373;324;63009;-62
2022/02/05 03:19:10;;;;;;;0.60;0.60;;;;;;;1.55;71.61;97283.41;29371;251;64009;-59
2022/02/05 03:19:46;;;;;;;0.60;0.60;;;;;;;1.55;71.47;97286.06;29371;214;64013;-60
2022/02/05 03:20:18;;;;;;;0.60;0.60;;;;;;;1.56;71.37;97287.69;29373;202;63004;-58
2022/02/05 03:20:49;;;;;;;0.60;0.60;;;;;;;1.58;71.47;97280.28;29373;199;63009;-59
2022/02/05 03:21:22;;;;;;;0.70;0.70;;;;;;;1.59;71.56;97292.59;29373;276;63004;-68
2022/02/05 03:21:53;;;;;;;0.90;0.90;;;;;;;1.66;70.60;97282.63;29373;202;63008;-59
2022/02/05 03:22:25;;;;;;;0.70;0.70;;;;;;;1.69;70.68;97292.88;29373;271;63005;-64
2022/02/05 03:23:00;;;;;;;0.60;0.60;;;;;;;1.67;70.54;97284.28;29373;202;63009;-59
2022/02/05 03:23:31;;;;;;;0.60;0.60;;;;;;;1.59;70.85;97289.94;29373;261;63005;-58
2022/02/05 03:24:04;;;;;;;0.60;0.60;;;;;;;1.48;71.55;97290.69;29371;337;64013;-58
2022/02/05 03:24:35;;;;;;;0.60;0.60;;;;;;;1.37;72.19;97292.28;29372;275;64005;-59
2022/02/05 03:25:07;;;;;;;0.60;0.60;;;;;;;1.32;72.82;97292.94;29395;243;63009;-59
2022/02/05 03:25:39;;;;;;;0.60;0.60;;;;;;;1.27;72.75;97295.47;29373;248;63009;-59
2022/02/05 03:26:10;;;;;;;0.60;0.60;;;;;;;1.23;73.22;97294.28;29373;222;63009;-60
2022/02/05 03:26:41;;;;;;;0.60;0.60;;;;;;;1.25;73.20;97294.87;29373;202;63004;-58
2022/02/05 03:27:15;;;;;;;0.60;0.60;;;;;;;1.24;73.17;97293.25;29371;313;64013;-59
2022/02/05 03:27:46;;;;;;;0.60;0.60;;;;;;;1.20;73.22;97293.91;29395;202;63004;-59
2022/02/05 03:28:18;;;;;;;0.60;0.60;;;;;;;1.15;73.64;97293.75;29371;199;64013;-62
2022/02/05 03:28:49;;;;;;;0.60;0.60;;;;;;;1.16;73.70;97292.72;29373;261;63017;-59
2022/02/05 03:29:20;;;;;;;0.60;0.60;;;;;;;1.17;73.61;97297.03;29373;234;63008;-60
2022/02/05 03:29:51;;;;;;;0.60;0.60;;;;;;;1.21;73.68;97301.69;29373;197;63009;-61
2022/02/05 03:30:23;;;;;;;0.60;0.60;;;;;;;1.31;72.92;97302.00;29371;348;64014;-59
2022/02/05 03:30:55;;;;;;;0.60;0.60;;;;;;;1.30;72.56;97300.38;29373;197;63005;-59
2022/02/05 03:31:26;;;;;;;0.60;0.60;;;;;;;1.27;73.20;97300.81;29373;353;63009;-59
2022/02/05 03:31:57;;;;;;;0.60;0.60;;;;;;;1.27;73.50;97303.50;29373;219;63005;-69
2022/02/05 03:32:29;;;;;;;0.60;0.60;;;;;;;1.30;72.84;97303.03;29371;257;64013;-59
2022/02/05 03:33:00;;;;;;;0.60;0.60;;;;;;;1.28;73.14;97305.13;29373;274;63005;-60
2022/02/05 03:33:32;;;;;;;0.60;0.60;;;;;;;1.29;73.10;97300.59;29371;345;64013;-60
2022/02/05 03:34:05;;;;;;;0.60;0.60;;;;;;;1.25;73.27;97305.56;29373;216;63004;-57
2022/02/05 03:34:37;;;;;;;0.60;0.60;;;;;;;1.17;74.06;97308.53;29373;218;63009;-59
2022/02/05 03:35:09;;;;;;;0.60;0.60;;;;;;;1.10;74.18;97307.78;29373;372;63004;-54
2022/02/05 03:35:40;;;;;;;1.92;1.85;;;;;;;1.05;74.55;97304.94;29371;300;64013;-60
2022/02/05 03:36:11;;;;;;;0.60;0.60;;;;;;;1.06;74.79;97314.59;29373;266;63004;-66
2022/02/05 03:36:43;;;;;;;0.60;0.60;;;;;;;1.15;74.17;97313.28;29373;227;63008;-59
2022/02/05 03:37:15;;;;;;;0.60;0.60;;;;;;;1.15;73.74;97310.59;29373;322;63005;-60
2022/02/05 03:37:46;;;;;;;0.50;0.50;;;;;;;1.18;73.73;97309.34;29373;204;63009;-60
2022/02/05 03:38:17;;;;;;;0.60;0.60;;;;;;;1.19;73.71;97311.81;29373;274;63005;-59
2022/02/05 03:38:49;;;;;;;0.60;0.60;;;;;;;1.19;73.71;97319.00;29371;352;64013;-61
2022/02/05 03:39:22;;;;;;;0.60;0.60;;;;;;;1.21;73.57;97317.75;29373;335;63005;-59
2022/02/05 03:39:54;;;;;;;0.60;0.60;;;;;;;1.25;74.09;97326.13;29373;350;63009;-62
2022/02/05 03:40:25;;;;;;;0.60;0.60;;;;;;;1.28;73.28;97318.50;29371;238;64009;-54
2022/02/05 03:40:57;;;;;;;0.60;0.60;;;;;;;1.25;73.68;97323.47;29373;283;63009;-55
2022/02/05 03:41:28;;;;;;;0.60;0.60;;;;;;;1.20;73.89;97326.78;29371;278;64009;-59
2022/02/05 03:42:01;;;;;;;0.60;0.60;;;;;;;1.19;74.04;97319.81;29372;202;64013;-59
2022/02/05 03:42:32;;;;;;;0.60;0.60;;;;;;;1.22;74.07;97324.72;29374;220;63004;-57
2022/02/05 03:43:04;;;;;;;0.60;0.60;;;;;;;1.21;73.78;97333.78;29374;217;63009;-59
2022/02/05 03:43:35;;;;;;;0.60;0.60;;;;;;;1.17;74.03;97327.25;29374;315;63004;-54
2022/02/05 03:44:06;;;;;;;0.50;0.50;;;;;;;1.17;74.34;97334.44;29374;213;63008;-54
2022/02/05 03:44:37;;;;;;;0.60;0.60;;;;;;;1.16;74.11;97325.59;29374;323;63005;-60
2022/02/05 03:45:09;;;;;;;0.60;0.60;;;;;;;1.19;74.29;97330.50;29374;251;63009;-59
2022/02/05 03:45:41;;;;;;;0.60;0.60;;;;;;;1.16;74.14;97330.94;29374;232;63006;-60
2022/02/05 03:46:14;;;;;;;0.60;0.60;;;;;;;1.14;74.46;97335.69;29395;231;64014;-59
2022/02/05 03:46:45;;;;;;;0.60;0.60;;;;;;;1.15;74.60;97334.66;29374;218;63005;-60
2022/02/05 03:47:17;;;;;;;0.60;0.60;;;;;;;1.13;74.17;97334.06;29374;206;63009;-59
2022/02/05 03:47:51;;;;;;;0.60;0.60;;;;;;;1.11;74.12;97333.47;29396;238;63005;-60
2022/02/05 03:48:22;;;;;;;0.60;0.60;;;;;;;1.09;74.31;97332.06;29374;286;63009;-58
2022/02/05 03:48:54;;;;;;;0.57;0.57;;;;;;;1.06;74.56;97335.97;29372;316;64009;-54
2022/02/05 03:49:25;;;;;;;0.60;0.60;;;;;;;1.03;74.85;97338.31;29396;351;63009;-59
2022/02/05 03:49:56;;;;;;;0.60;0.60;;;;;;;0.99;74.65;97337.94;29374;224;63004;-58
2022/02/05 03:50:29;;;;;;;0.60;0.60;;;;;;;0.96;74.91;97335.69;29374;202;63009;-59
2022/02/05 03:51:01;;;;;;;0.60;0.60;;;;;;;0.95;75.01;97345.56;29374;276;63004;-60
2022/02/05 03:51:32;;;;;;;0.60;0.60;;;;;;;0.93;75.48;97342.31;29374;274;63016;-60
2022/02/05 03:52:09;;;;;;;0.60;0.60;;;;;;;0.96;75.58;97346.38;29374;307;63011;-53
2022/02/05 03:52:42;;;;;;;0.52;0.52;;;;;;;0.96;75.79;97338.38;29372;297;64014;-59
2022/02/05 03:53:14;;;;;;;0.60;0.60;;;;;;;0.94;75.50;97348.47;29374;340;63011;-59
2022/02/05 03:53:45;;;;;;;0.60;0.60;;;;;;;0.94;75.88;97343.13;29374;330;63009;-58
2022/02/05 03:54:21;;;;;;;0.60;0.60;;;;;;;0.91;75.61;97348.91;29374;247;63005;-58
2022/02/05 03:54:52;;;;;;;0.60;0.60;;;;;;;0.94;76.11;97343.13;29374;343;63005;-58
2022/02/05 03:55:24;;;;;;;0.60;0.60;;;;;;;0.94;75.87;97343.94;29372;230;64009;-55
2022/02/05 03:55:56;;;;;;;0.60;0.60;;;;;;;0.94;75.66;97346.59;29374;200;63005;-59
2022/02/05 03:56:27;;;;;;;0.60;0.60;;;;;;;1.00;75.06;97347.59;29374;221;63004;-62
2022/02/05 03:56:59;;;;;;;0.60;0.60;;;;;;;1.06;74.94;97344.00;29374;337;63009;-62
2022/02/05 03:57:34;;;;;;;0.60;0.60;;;;;;;1.10;74.35;97345.19;29374;283;63008;-59
2022/02/05 03:58:10;;;;;;;0.60;0.60;;;;;;;1.09;74.40;97348.91;29374;202;63009;-55
2022/02/05 03:58:42;;;;;;;0.60;0.60;;;;;;;1.08;74.33;97347.28;29374;345;63004;-59
2022/02/05 03:59:13;;;;;;;0.60;0.60;;;;;;;1.06;74.56;97357.38;29374;344;63008;-59
2022/02/05 03:59:45;;;;;;;0.60;0.60;;;;;;;1.03;75.09;97357.84;29374;254;63005;-55
2022/02/05 04:00:17;;;;;;;0.60;0.60;;;;;;;1.05;74.92;97355.72;29374;249;63009;-59
2022/02/05 04:00:51;;;;;;;0.60;0.60;;;;;;;1.09;74.50;97350.75;29372;244;64009;-59
2022/02/05 04:01:23;;;;;;;0.60;0.60;;;;;;;1.11;74.68;97349.50;29374;264;63009;-61
2022/02/05 04:01:54;;;;;;;0.60;0.60;;;;;;;1.15;74.33;97345.34;29374;205;63005;-60
2022/02/05 04:02:27;;;;;;;0.60;0.60;;;;;;;1.19;73.68;97345.72;29374;198;63009;-60
2022/02/05 04:02:59;;;;;;;0.60;0.60;;;;;;;1.15;73.43;97353.38;29374;203;63005;-60
2022/02/05 04:03:32;;;;;;;0.60;0.60;;;;;;;1.16;73.89;97355.00;29372;350;64013;-59
2022/02/05 04:04:04;;;;;;;0.60;0.60;;;;;;;1.12;74.09;97344.97;29374;304;63004;-54
2022/02/05 04:04:35;;;;;;;0.70;0.70;;;;;;;1.06;74.17;97346.69;29374;452;63009;-55
2022/02/05 04:05:07;;;;;;;0.60;0.60;;;;;;;1.03;74.51;97357.84;29374;304;63004;-58
2022/02/05 04:05:39;;;;;;;0.60;0.60;;;;;;;0.98;74.73;97360.34;29374;196;63008;-59
2022/02/05 04:06:10;;;;;;;0.60;0.60;;;;;;;0.95;74.80;97355.44;29374;241;63009;-59
2022/02/05 04:06:44;;;;;;;0.60;0.60;;;;;;;0.92;75.18;97355.87;29374;330;63008;-58
2022/02/05 04:07:15;;;;;;;0.60;0.60;;;;;;;0.91;75.55;97354.25;29374;310;63005;-59
2022/02/05 04:07:50;;;;;;;0.60;0.60;;;;;;;0.93;75.60;97358.34;29374;232;63009;-59
2022/02/05 04:08:22;;;;;;;0.60;0.60;;;;;;;0.93;75.34;97357.50;29374;242;63005;-59